sensor_id;sensor_type;location;lat;lon;timestamp;P1;durP1;ratioP1;P2;durP2;ratioP2
54743;SDS011;40639;53.170;6.728;2023-07-31T00:01:33;6.07;;;3.40;;
54743;SDS011;40639;53.170;6.728;2023-07-31T00:03:59;5.38;;;3.60;;
54743;SDS011;40639;53.170;6.728;2023-07-31T00:06:25;5.85;;;3.38;;
54743;SDS011;40639;53.170;6.728;2023-07-31T00:08:51;5.82;;;3.35;;
54743;SDS011;40639;53.170;6.728;2023-07-31T00:11:17;4.63;;;3.00;;
54743;SDS011;40639;53.170;6.728;2023-07-31T00:13:43;4.25;;;2.85;;
54743;SDS011;40639;53.170;6.728;2023-07-31T00:16:09;7.38;;;3.22;;
54743;SDS011;40639;53.170;6.728;2023-07-31T00:18:35;4.85;;;2.78;;
54743;SDS011;40639;53.170;6.728;2023-07-31T00:21:01;3.78;;;2.30;;
54743;SDS011;40639;53.170;6.728;2023-07-31T00:23:27;5.60;;;2.75;;
54743;SDS011;40639;53.170;6.728;2023-07-31T00:25:53;4.15;;;2.70;;
54743;SDS011;40639;53.170;6.728;2023-07-31T00:28:19;3.78;;;2.53;;
54743;SDS011;40639;53.170;6.728;2023-07-31T00:30:45;5.70;;;2.10;;
54743;SDS011;40639;53.170;6.728;2023-07-31T00:33:12;8.40;;;2.85;;
54743;SDS011;40639;53.170;6.728;2023-07-31T00:35:38;4.10;;;2.13;;
54743;SDS011;40639;53.170;6.728;2023-07-31T00:38:04;3.90;;;2.50;;
54743;SDS011;40639;53.170;6.728;2023-07-31T00:40:34;5.15;;;2.47;;
54743;SDS011;40639;53.170;6.728;2023-07-31T00:43:01;4.50;;;2.38;;
54743;SDS011;40639;53.170;6.728;2023-07-31T00:45:27;3.15;;;2.30;;
54743;SDS011;40639;53.170;6.728;2023-07-31T00:47:53;4.10;;;2.78;;
54743;SDS011;40639;53.170;6.728;2023-07-31T00:50:19;6.50;;;2.78;;
54743;SDS011;40639;53.170;6.728;2023-07-31T00:52:45;4.10;;;2.78;;
54743;SDS011;40639;53.170;6.728;2023-07-31T00:55:11;4.18;;;2.42;;
54743;SDS011;40639;53.170;6.728;2023-07-31T00:57:38;4.80;;;2.50;;
54743;SDS011;40639;53.170;6.728;2023-07-31T01:00:05;3.90;;;2.65;;
54743;SDS011;40639;53.170;6.728;2023-07-31T01:02:32;3.40;;;2.20;;
54743;SDS011;40639;53.170;6.728;2023-07-31T01:04:58;4.38;;;2.55;;
54743;SDS011;40639;53.170;6.728;2023-07-31T01:10:02;4.93;;;2.45;;
54743;SDS011;40639;53.170;6.728;2023-07-31T01:12:30;3.67;;;2.38;;
54743;SDS011;40639;53.170;6.728;2023-07-31T01:15:07;3.90;;;2.47;;
54743;SDS011;40639;53.170;6.728;2023-07-31T01:17:36;3.15;;;2.42;;
54743;SDS011;40639;53.170;6.728;2023-07-31T01:20:02;4.05;;;2.30;;
54743;SDS011;40639;53.170;6.728;2023-07-31T01:28:00;4.80;;;2.33;;
54743;SDS011;40639;53.170;6.728;2023-07-31T01:30:28;3.38;;;1.90;;
54743;SDS011;40639;53.170;6.728;2023-07-31T01:33:00;4.03;;;2.10;;
54743;SDS011;40639;53.170;6.728;2023-07-31T01:35:31;3.80;;;1.90;;
54743;SDS011;40639;53.170;6.728;2023-07-31T01:37:58;2.47;;;1.83;;
54743;SDS011;40639;53.170;6.728;2023-07-31T01:40:24;2.97;;;1.90;;
54743;SDS011;40639;53.170;6.728;2023-07-31T01:42:50;2.55;;;2.05;;
54743;SDS011;40639;53.170;6.728;2023-07-31T01:45:16;1.95;;;1.70;;
54743;SDS011;40639;53.170;6.728;2023-07-31T01:47:42;2.88;;;2.10;;
54743;SDS011;40639;53.170;6.728;2023-07-31T01:50:08;3.22;;;1.85;;
54743;SDS011;40639;53.170;6.728;2023-07-31T01:52:34;3.83;;;1.70;;
54743;SDS011;40639;53.170;6.728;2023-07-31T01:55:00;2.90;;;1.77;;
54743;SDS011;40639;53.170;6.728;2023-07-31T01:57:27;3.10;;;1.63;;
54743;SDS011;40639;53.170;6.728;2023-07-31T01:59:53;2.03;;;1.58;;
54743;SDS011;40639;53.170;6.728;2023-07-31T02:02:19;3.28;;;1.65;;
54743;SDS011;40639;53.170;6.728;2023-07-31T02:04:46;1.63;;;1.40;;
54743;SDS011;40639;53.170;6.728;2023-07-31T02:07:12;2.42;;;1.40;;
54743;SDS011;40639;53.170;6.728;2023-07-31T02:09:38;2.25;;;1.20;;
54743;SDS011;40639;53.170;6.728;2023-07-31T02:12:04;1.88;;;1.30;;
54743;SDS011;40639;53.170;6.728;2023-07-31T02:14:31;1.33;;;1.00;;
54743;SDS011;40639;53.170;6.728;2023-07-31T02:16:57;2.42;;;1.05;;
54743;SDS011;40639;53.170;6.728;2023-07-31T02:19:23;1.40;;;0.90;;
54743;SDS011;40639;53.170;6.728;2023-07-31T02:21:49;0.85;;;0.68;;
54743;SDS011;40639;53.170;6.728;2023-07-31T02:24:15;3.88;;;1.00;;
54743;SDS011;40639;53.170;6.728;2023-07-31T02:26:41;1.17;;;0.80;;
54743;SDS011;40639;53.170;6.728;2023-07-31T02:29:08;2.30;;;0.90;;
54743;SDS011;40639;53.170;6.728;2023-07-31T02:31:34;3.47;;;1.08;;
54743;SDS011;40639;53.170;6.728;2023-07-31T02:34:00;2.22;;;0.80;;
54743;SDS011;40639;53.170;6.728;2023-07-31T02:36:26;1.63;;;0.80;;
54743;SDS011;40639;53.170;6.728;2023-07-31T02:38:52;0.80;;;0.57;;
54743;SDS011;40639;53.170;6.728;2023-07-31T02:41:18;1.50;;;0.60;;
54743;SDS011;40639;53.170;6.728;2023-07-31T02:43:44;1.00;;;0.80;;
54743;SDS011;40639;53.170;6.728;2023-07-31T02:46:10;1.08;;;0.55;;
54743;SDS011;40639;53.170;6.728;2023-07-31T02:48:36;2.40;;;0.60;;
54743;SDS011;40639;53.170;6.728;2023-07-31T02:51:02;0.60;;;0.57;;
54743;SDS011;40639;53.170;6.728;2023-07-31T02:53:28;0.77;;;0.50;;
54743;SDS011;40639;53.170;6.728;2023-07-31T02:55:54;1.10;;;0.50;;
54743;SDS011;40639;53.170;6.728;2023-07-31T02:58:20;0.60;;;0.40;;
54743;SDS011;40639;53.170;6.728;2023-07-31T03:00:46;0.82;;;0.52;;
54743;SDS011;40639;53.170;6.728;2023-07-31T03:03:12;0.82;;;0.50;;
54743;SDS011;40639;53.170;6.728;2023-07-31T03:05:38;0.70;;;0.60;;
54743;SDS011;40639;53.170;6.728;2023-07-31T03:08:04;1.20;;;0.57;;
54743;SDS011;40639;53.170;6.728;2023-07-31T03:10:30;1.75;;;0.57;;
54743;SDS011;40639;53.170;6.728;2023-07-31T03:12:56;0.50;;;0.40;;
54743;SDS011;40639;53.170;6.728;2023-07-31T03:15:22;2.40;;;0.60;;
54743;SDS011;40639;53.170;6.728;2023-07-31T03:17:48;1.70;;;0.60;;
54743;SDS011;40639;53.170;6.728;2023-07-31T03:20:15;1.40;;;0.70;;
54743;SDS011;40639;53.170;6.728;2023-07-31T03:22:41;1.10;;;0.50;;
54743;SDS011;40639;53.170;6.728;2023-07-31T03:25:07;0.80;;;0.60;;
54743;SDS011;40639;53.170;6.728;2023-07-31T03:27:35;1.55;;;0.63;;
54743;SDS011;40639;53.170;6.728;2023-07-31T03:30:01;2.40;;;0.65;;
54743;SDS011;40639;53.170;6.728;2023-07-31T03:32:27;1.10;;;0.80;;
54743;SDS011;40639;53.170;6.728;2023-07-31T03:34:53;0.90;;;0.70;;
54743;SDS011;40639;53.170;6.728;2023-07-31T03:37:20;1.17;;;0.60;;
54743;SDS011;40639;53.170;6.728;2023-07-31T03:39:46;1.67;;;0.70;;
54743;SDS011;40639;53.170;6.728;2023-07-31T03:42:12;0.88;;;0.70;;
54743;SDS011;40639;53.170;6.728;2023-07-31T03:44:38;0.95;;;0.70;;
54743;SDS011;40639;53.170;6.728;2023-07-31T03:47:04;1.42;;;0.70;;
54743;SDS011;40639;53.170;6.728;2023-07-31T03:49:30;1.25;;;0.80;;
54743;SDS011;40639;53.170;6.728;2023-07-31T03:51:56;1.88;;;0.93;;
54743;SDS011;40639;53.170;6.728;2023-07-31T03:54:22;2.17;;;0.82;;
54743;SDS011;40639;53.170;6.728;2023-07-31T03:56:48;1.17;;;0.90;;
54743;SDS011;40639;53.170;6.728;2023-07-31T03:59:15;1.10;;;0.80;;
54743;SDS011;40639;53.170;6.728;2023-07-31T04:01:41;1.60;;;0.90;;
54743;SDS011;40639;53.170;6.728;2023-07-31T04:04:07;1.88;;;0.85;;
54743;SDS011;40639;53.170;6.728;2023-07-31T04:06:33;1.45;;;0.82;;
54743;SDS011;40639;53.170;6.728;2023-07-31T04:08:59;1.63;;;0.90;;
54743;SDS011;40639;53.170;6.728;2023-07-31T04:11:25;1.65;;;1.00;;
54743;SDS011;40639;53.170;6.728;2023-07-31T04:13:51;1.33;;;0.63;;
54743;SDS011;40639;53.170;6.728;2023-07-31T04:16:17;2.17;;;0.90;;
54743;SDS011;40639;53.170;6.728;2023-07-31T04:18:43;2.85;;;1.25;;
54743;SDS011;40639;53.170;6.728;2023-07-31T04:21:09;1.77;;;0.80;;
54743;SDS011;40639;53.170;6.728;2023-07-31T04:23:35;0.98;;;0.77;;
54743;SDS011;40639;53.170;6.728;2023-07-31T04:26:01;2.60;;;0.80;;
54743;SDS011;40639;53.170;6.728;2023-07-31T04:28:27;1.77;;;0.75;;
54743;SDS011;40639;53.170;6.728;2023-07-31T04:30:53;1.50;;;0.73;;
54743;SDS011;40639;53.170;6.728;2023-07-31T04:33:19;1.92;;;0.68;;
54743;SDS011;40639;53.170;6.728;2023-07-31T04:35:52;1.92;;;0.70;;
54743;SDS011;40639;53.170;6.728;2023-07-31T04:38:19;1.02;;;0.70;;
54743;SDS011;40639;53.170;6.728;2023-07-31T04:40:45;2.17;;;0.93;;
54743;SDS011;40639;53.170;6.728;2023-07-31T04:43:11;1.02;;;0.70;;
54743;SDS011;40639;53.170;6.728;2023-07-31T04:45:37;1.10;;;0.60;;
54743;SDS011;40639;53.170;6.728;2023-07-31T04:48:03;2.15;;;0.90;;
54743;SDS011;40639;53.170;6.728;2023-07-31T04:50:30;1.42;;;0.57;;
54743;SDS011;40639;53.170;6.728;2023-07-31T04:52:56;0.80;;;0.60;;
54743;SDS011;40639;53.170;6.728;2023-07-31T04:55:23;2.25;;;0.90;;
54743;SDS011;40639;53.170;6.728;2023-07-31T04:57:49;4.72;;;0.65;;
54743;SDS011;40639;53.170;6.728;2023-07-31T05:00:15;1.05;;;0.60;;
54743;SDS011;40639;53.170;6.728;2023-07-31T05:02:41;1.35;;;0.50;;
54743;SDS011;40639;53.170;6.728;2023-07-31T05:05:07;0.88;;;0.50;;
54743;SDS011;40639;53.170;6.728;2023-07-31T05:07:33;0.70;;;0.55;;
54743;SDS011;40639;53.170;6.728;2023-07-31T05:10:00;0.80;;;0.50;;
54743;SDS011;40639;53.170;6.728;2023-07-31T05:12:26;3.13;;;0.90;;
54743;SDS011;40639;53.170;6.728;2023-07-31T05:14:52;3.08;;;0.80;;
54743;SDS011;40639;53.170;6.728;2023-07-31T05:17:18;1.98;;;0.60;;
54743;SDS011;40639;53.170;6.728;2023-07-31T05:19:44;1.58;;;0.75;;
54743;SDS011;40639;53.170;6.728;2023-07-31T05:22:10;1.52;;;0.70;;
54743;SDS011;40639;53.170;6.728;2023-07-31T05:24:39;1.50;;;0.60;;
54743;SDS011;40639;53.170;6.728;2023-07-31T05:27:05;1.75;;;0.80;;
54743;SDS011;40639;53.170;6.728;2023-07-31T05:29:31;1.52;;;0.57;;
54743;SDS011;40639;53.170;6.728;2023-07-31T05:31:57;2.35;;;0.68;;
54743;SDS011;40639;53.170;6.728;2023-07-31T05:34:23;2.10;;;0.70;;
54743;SDS011;40639;53.170;6.728;2023-07-31T05:36:50;2.25;;;0.90;;
54743;SDS011;40639;53.170;6.728;2023-07-31T05:39:16;1.55;;;0.90;;
54743;SDS011;40639;53.170;6.728;2023-07-31T05:41:43;2.20;;;0.80;;
54743;SDS011;40639;53.170;6.728;2023-07-31T05:44:09;1.33;;;0.90;;
54743;SDS011;40639;53.170;6.728;2023-07-31T05:46:35;1.38;;;0.90;;
54743;SDS011;40639;53.170;6.728;2023-07-31T05:49:01;1.73;;;0.80;;
54743;SDS011;40639;53.170;6.728;2023-07-31T05:51:27;1.98;;;0.93;;
54743;SDS011;40639;53.170;6.728;2023-07-31T05:53:53;1.70;;;0.90;;
54743;SDS011;40639;53.170;6.728;2023-07-31T05:56:20;1.42;;;0.73;;
54743;SDS011;40639;53.170;6.728;2023-07-31T05:58:46;2.60;;;0.88;;
54743;SDS011;40639;53.170;6.728;2023-07-31T06:01:14;2.88;;;1.00;;
54743;SDS011;40639;53.170;6.728;2023-07-31T06:03:40;1.58;;;0.80;;
54743;SDS011;40639;53.170;6.728;2023-07-31T06:06:07;2.47;;;1.08;;
54743;SDS011;40639;53.170;6.728;2023-07-31T06:08:33;1.63;;;0.95;;
54743;SDS011;40639;53.170;6.728;2023-07-31T06:10:59;1.75;;;1.00;;
54743;SDS011;40639;53.170;6.728;2023-07-31T06:13:25;3.33;;;1.13;;
54743;SDS011;40639;53.170;6.728;2023-07-31T06:15:51;2.25;;;1.10;;
54743;SDS011;40639;53.170;6.728;2023-07-31T06:18:17;2.20;;;1.08;;
54743;SDS011;40639;53.170;6.728;2023-07-31T06:20:43;1.77;;;1.10;;
54743;SDS011;40639;53.170;6.728;2023-07-31T06:23:09;4.20;;;1.10;;
54743;SDS011;40639;53.170;6.728;2023-07-31T06:25:35;2.95;;;1.20;;
54743;SDS011;40639;53.170;6.728;2023-07-31T06:28:02;2.65;;;1.10;;
54743;SDS011;40639;53.170;6.728;2023-07-31T06:30:28;2.75;;;1.38;;
54743;SDS011;40639;53.170;6.728;2023-07-31T06:32:54;4.50;;;1.80;;
54743;SDS011;40639;53.170;6.728;2023-07-31T06:35:20;5.10;;;1.90;;
54743;SDS011;40639;53.170;6.728;2023-07-31T06:37:46;4.78;;;2.08;;
54743;SDS011;40639;53.170;6.728;2023-07-31T06:40:12;9.13;;;2.90;;
54743;SDS011;40639;53.170;6.728;2023-07-31T06:42:38;7.72;;;3.08;;
54743;SDS011;40639;53.170;6.728;2023-07-31T06:45:04;9.63;;;3.50;;
54743;SDS011;40639;53.170;6.728;2023-07-31T06:47:31;14.60;;;3.28;;
54743;SDS011;40639;53.170;6.728;2023-07-31T06:49:57;13.77;;;4.28;;
54743;SDS011;40639;53.170;6.728;2023-07-31T06:52:23;11.43;;;4.30;;
54743;SDS011;40639;53.170;6.728;2023-07-31T06:57:48;14.50;;;4.85;;
54743;SDS011;40639;53.170;6.728;2023-07-31T07:00:15;15.00;;;6.40;;
54743;SDS011;40639;53.170;6.728;2023-07-31T07:02:41;14.30;;;5.63;;
54743;SDS011;40639;53.170;6.728;2023-07-31T07:05:07;21.73;;;5.60;;
54743;SDS011;40639;53.170;6.728;2023-07-31T07:07:34;14.05;;;5.60;;
54743;SDS011;40639;53.170;6.728;2023-07-31T07:10:00;17.65;;;6.18;;
54743;SDS011;40639;53.170;6.728;2023-07-31T07:12:29;13.77;;;5.32;;
54743;SDS011;40639;53.170;6.728;2023-07-31T07:14:55;13.57;;;5.40;;
54743;SDS011;40639;53.170;6.728;2023-07-31T07:17:22;13.27;;;4.85;;
54743;SDS011;40639;53.170;6.728;2023-07-31T07:19:48;14.02;;;5.43;;
54743;SDS011;40639;53.170;6.728;2023-07-31T07:22:14;13.32;;;5.05;;
54743;SDS011;40639;53.170;6.728;2023-07-31T07:24:41;16.60;;;4.88;;
54743;SDS011;40639;53.170;6.728;2023-07-31T07:27:07;13.65;;;5.35;;
54743;SDS011;40639;53.170;6.728;2023-07-31T07:29:37;13.55;;;5.30;;
54743;SDS011;40639;53.170;6.728;2023-07-31T07:32:03;15.07;;;5.78;;
54743;SDS011;40639;53.170;6.728;2023-07-31T07:34:30;13.38;;;5.10;;
54743;SDS011;40639;53.170;6.728;2023-07-31T07:36:56;16.90;;;5.15;;
54743;SDS011;40639;53.170;6.728;2023-07-31T07:39:22;11.75;;;4.88;;
54743;SDS011;40639;53.170;6.728;2023-07-31T07:41:48;16.98;;;4.50;;
54743;SDS011;40639;53.170;6.728;2023-07-31T07:44:14;13.43;;;5.35;;
54743;SDS011;40639;53.170;6.728;2023-07-31T07:46:40;14.98;;;4.30;;
54743;SDS011;40639;53.170;6.728;2023-07-31T07:49:06;11.95;;;4.18;;
54743;SDS011;40639;53.170;6.728;2023-07-31T07:51:32;7.70;;;3.42;;
54743;SDS011;40639;53.170;6.728;2023-07-31T07:53:58;8.15;;;3.45;;
54743;SDS011;40639;53.170;6.728;2023-07-31T07:56:25;6.72;;;2.80;;
54743;SDS011;40639;53.170;6.728;2023-07-31T07:58:51;6.07;;;2.50;;
54743;SDS011;40639;53.170;6.728;2023-07-31T08:01:17;7.15;;;2.55;;
54743;SDS011;40639;53.170;6.728;2023-07-31T08:03:43;5.53;;;2.53;;
54743;SDS011;40639;53.170;6.728;2023-07-31T08:06:10;5.30;;;2.25;;
54743;SDS011;40639;53.170;6.728;2023-07-31T08:08:36;5.13;;;1.95;;
54743;SDS011;40639;53.170;6.728;2023-07-31T08:11:02;5.07;;;2.38;;
54743;SDS011;40639;53.170;6.728;2023-07-31T08:13:28;4.97;;;2.15;;
54743;SDS011;40639;53.170;6.728;2023-07-31T08:15:54;4.03;;;1.95;;
54743;SDS011;40639;53.170;6.728;2023-07-31T08:18:21;3.20;;;1.80;;
54743;SDS011;40639;53.170;6.728;2023-07-31T08:20:47;3.25;;;1.80;;
54743;SDS011;40639;53.170;6.728;2023-07-31T08:23:13;3.90;;;1.48;;
54743;SDS011;40639;53.170;6.728;2023-07-31T08:25:39;2.83;;;1.88;;
54743;SDS011;40639;53.170;6.728;2023-07-31T08:28:05;2.90;;;1.38;;
54743;SDS011;40639;53.170;6.728;2023-07-31T08:30:32;3.58;;;1.50;;
54743;SDS011;40639;53.170;6.728;2023-07-31T08:33:01;4.38;;;1.50;;
54743;SDS011;40639;53.170;6.728;2023-07-31T08:35:27;4.85;;;1.88;;
54743;SDS011;40639;53.170;6.728;2023-07-31T08:37:54;3.92;;;1.52;;
54743;SDS011;40639;53.170;6.728;2023-07-31T08:40:20;3.03;;;1.70;;
54743;SDS011;40639;53.170;6.728;2023-07-31T08:42:50;2.95;;;1.42;;
54743;SDS011;40639;53.170;6.728;2023-07-31T08:45:17;1.50;;;1.25;;
54743;SDS011;40639;53.170;6.728;2023-07-31T08:47:47;3.38;;;1.70;;
54743;SDS011;40639;53.170;6.728;2023-07-31T08:50:14;3.90;;;1.50;;
54743;SDS011;40639;53.170;6.728;2023-07-31T08:52:40;3.90;;;1.48;;
54743;SDS011;40639;53.170;6.728;2023-07-31T08:55:07;1.90;;;1.30;;
54743;SDS011;40639;53.170;6.728;2023-07-31T08:57:34;3.35;;;1.40;;
54743;SDS011;40639;53.170;6.728;2023-07-31T09:00:00;4.93;;;1.65;;
54743;SDS011;40639;53.170;6.728;2023-07-31T09:02:29;3.05;;;1.08;;
54743;SDS011;40639;53.170;6.728;2023-07-31T09:04:57;1.48;;;0.93;;
54743;SDS011;40639;53.170;6.728;2023-07-31T09:07:23;3.42;;;1.35;;
54743;SDS011;40639;53.170;6.728;2023-07-31T09:09:51;3.50;;;1.30;;
54743;SDS011;40639;53.170;6.728;2023-07-31T09:12:17;3.33;;;1.05;;
54743;SDS011;40639;53.170;6.728;2023-07-31T09:14:43;1.90;;;1.25;;
54743;SDS011;40639;53.170;6.728;2023-07-31T09:17:11;1.35;;;1.10;;
54743;SDS011;40639;53.170;6.728;2023-07-31T09:19:37;3.15;;;1.30;;
54743;SDS011;40639;53.170;6.728;2023-07-31T09:22:04;2.88;;;1.20;;
54743;SDS011;40639;53.170;6.728;2023-07-31T09:24:31;1.85;;;1.10;;
54743;SDS011;40639;53.170;6.728;2023-07-31T09:26:58;2.35;;;1.23;;
54743;SDS011;40639;53.170;6.728;2023-07-31T09:29:24;1.00;;;0.90;;
54743;SDS011;40639;53.170;6.728;2023-07-31T09:31:51;1.83;;;0.93;;
54743;SDS011;40639;53.170;6.728;2023-07-31T09:34:18;1.02;;;0.90;;
54743;SDS011;40639;53.170;6.728;2023-07-31T09:36:48;2.70;;;0.90;;
54743;SDS011;40639;53.170;6.728;2023-07-31T09:39:15;1.73;;;1.10;;
54743;SDS011;40639;53.170;6.728;2023-07-31T09:41:45;2.20;;;0.80;;
54743;SDS011;40639;53.170;6.728;2023-07-31T09:44:11;1.08;;;0.90;;
54743;SDS011;40639;53.170;6.728;2023-07-31T09:46:37;1.45;;;0.70;;
54743;SDS011;40639;53.170;6.728;2023-07-31T09:49:10;1.17;;;0.70;;
54743;SDS011;40639;53.170;6.728;2023-07-31T09:51:37;1.63;;;1.10;;
54743;SDS011;40639;53.170;6.728;2023-07-31T09:54:13;1.40;;;0.80;;
54743;SDS011;40639;53.170;6.728;2023-07-31T09:56:41;1.42;;;0.70;;
54743;SDS011;40639;53.170;6.728;2023-07-31T09:59:08;1.52;;;0.93;;
54743;SDS011;40639;53.170;6.728;2023-07-31T10:01:36;0.47;;;0.40;;
54743;SDS011;40639;53.170;6.728;2023-07-31T10:04:02;0.50;;;0.40;;
54743;SDS011;40639;53.170;6.728;2023-07-31T10:06:29;1.17;;;0.40;;
54743;SDS011;40639;53.170;6.728;2023-07-31T10:08:55;1.20;;;0.32;;
54743;SDS011;40639;53.170;6.728;2023-07-31T10:11:22;1.05;;;0.40;;
54743;SDS011;40639;53.170;6.728;2023-07-31T10:13:50;0.35;;;0.35;;
54743;SDS011;40639;53.170;6.728;2023-07-31T10:16:17;0.30;;;0.30;;
54743;SDS011;40639;53.170;6.728;2023-07-31T10:18:43;0.30;;;0.28;;
54743;SDS011;40639;53.170;6.728;2023-07-31T10:21:10;0.43;;;0.22;;
54743;SDS011;40639;53.170;6.728;2023-07-31T10:23:36;0.85;;;0.30;;
54743;SDS011;40639;53.170;6.728;2023-07-31T10:26:04;0.20;;;0.20;;
54743;SDS011;40639;53.170;6.728;2023-07-31T10:28:31;0.95;;;0.28;;
54743;SDS011;40639;53.170;6.728;2023-07-31T10:30:58;0.57;;;0.30;;
54743;SDS011;40639;53.170;6.728;2023-07-31T10:33:25;0.30;;;0.30;;
54743;SDS011;40639;53.170;6.728;2023-07-31T10:35:54;0.30;;;0.22;;
54743;SDS011;40639;53.170;6.728;2023-07-31T10:38:37;0.35;;;0.30;;
54743;SDS011;40639;53.170;6.728;2023-07-31T10:41:12;0.75;;;0.30;;
54743;SDS011;40639;53.170;6.728;2023-07-31T10:43:38;0.77;;;0.40;;
54743;SDS011;40639;53.170;6.728;2023-07-31T10:46:22;3.17;;;0.52;;
54743;SDS011;40639;53.170;6.728;2023-07-31T10:48:51;0.80;;;0.40;;
54743;SDS011;40639;53.170;6.728;2023-07-31T10:51:22;0.30;;;0.30;;
54743;SDS011;40639;53.170;6.728;2023-07-31T10:53:48;0.50;;;0.40;;
54743;SDS011;40639;53.170;6.728;2023-07-31T10:56:16;0.40;;;0.40;;
54743;SDS011;40639;53.170;6.728;2023-07-31T10:58:47;0.30;;;0.20;;
54743;SDS011;40639;53.170;6.728;2023-07-31T11:01:25;0.30;;;0.30;;
54743;SDS011;40639;53.170;6.728;2023-07-31T11:04:12;0.35;;;0.20;;
54743;SDS011;40639;53.170;6.728;2023-07-31T11:06:38;0.20;;;0.20;;
54743;SDS011;40639;53.170;6.728;2023-07-31T11:09:04;0.28;;;0.10;;
54743;SDS011;40639;53.170;6.728;2023-07-31T11:11:31;0.75;;;0.20;;
54743;SDS011;40639;53.170;6.728;2023-07-31T11:13:59;1.42;;;0.28;;
54743;SDS011;40639;53.170;6.728;2023-07-31T11:16:25;0.35;;;0.20;;
54743;SDS011;40639;53.170;6.728;2023-07-31T11:18:51;0.63;;;0.20;;
54743;SDS011;40639;53.170;6.728;2023-07-31T11:21:19;0.50;;;0.30;;
54743;SDS011;40639;53.170;6.728;2023-07-31T11:23:47;0.45;;;0.20;;
54743;SDS011;40639;53.170;6.728;2023-07-31T11:26:13;2.28;;;0.30;;
54743;SDS011;40639;53.170;6.728;2023-07-31T11:28:40;0.25;;;0.22;;
54743;SDS011;40639;53.170;6.728;2023-07-31T11:31:10;0.73;;;0.30;;
54743;SDS011;40639;53.170;6.728;2023-07-31T11:33:36;2.35;;;0.28;;
54743;SDS011;40639;53.170;6.728;2023-07-31T11:36:02;1.45;;;0.20;;
54743;SDS011;40639;53.170;6.728;2023-07-31T11:38:30;0.20;;;0.20;;
54743;SDS011;40639;53.170;6.728;2023-07-31T11:40:57;0.22;;;0.22;;
54743;SDS011;40639;53.170;6.728;2023-07-31T11:43:23;0.28;;;0.20;;
54743;SDS011;40639;53.170;6.728;2023-07-31T11:45:53;0.20;;;0.20;;
54743;SDS011;40639;53.170;6.728;2023-07-31T11:48:24;0.90;;;0.40;;
54743;SDS011;40639;53.170;6.728;2023-07-31T11:50:52;1.05;;;0.40;;
54743;SDS011;40639;53.170;6.728;2023-07-31T11:53:19;2.03;;;0.28;;
54743;SDS011;40639;53.170;6.728;2023-07-31T11:55:46;0.60;;;0.40;;
54743;SDS011;40639;53.170;6.728;2023-07-31T11:58:13;0.57;;;0.40;;
54743;SDS011;40639;53.170;6.728;2023-07-31T12:00:40;0.50;;;0.50;;
54743;SDS011;40639;53.170;6.728;2023-07-31T12:03:06;0.75;;;0.50;;
54743;SDS011;40639;53.170;6.728;2023-07-31T12:05:32;0.65;;;0.52;;
54743;SDS011;40639;53.170;6.728;2023-07-31T12:07:58;1.13;;;0.60;;
54743;SDS011;40639;53.170;6.728;2023-07-31T12:13:03;1.05;;;0.70;;
54743;SDS011;40639;53.170;6.728;2023-07-31T12:15:33;1.38;;;0.50;;
54743;SDS011;40639;53.170;6.728;2023-07-31T12:18:00;1.80;;;0.85;;
54743;SDS011;40639;53.170;6.728;2023-07-31T12:20:26;1.58;;;0.70;;
54743;SDS011;40639;53.170;6.728;2023-07-31T12:22:52;1.27;;;0.80;;
54743;SDS011;40639;53.170;6.728;2023-07-31T12:25:22;2.80;;;1.00;;
54743;SDS011;40639;53.170;6.728;2023-07-31T12:27:48;1.13;;;0.85;;
54743;SDS011;40639;53.170;6.728;2023-07-31T12:30:29;0.80;;;0.70;;
54743;SDS011;40639;53.170;6.728;2023-07-31T12:32:55;0.98;;;0.70;;
54743;SDS011;40639;53.170;6.728;2023-07-31T12:35:21;1.90;;;0.90;;
54743;SDS011;40639;53.170;6.728;2023-07-31T12:37:47;1.80;;;0.80;;
54743;SDS011;40639;53.170;6.728;2023-07-31T12:40:14;2.03;;;0.88;;
54743;SDS011;40639;53.170;6.728;2023-07-31T12:42:40;1.67;;;0.70;;
54743;SDS011;40639;53.170;6.728;2023-07-31T12:45:07;1.48;;;0.80;;
54743;SDS011;40639;53.170;6.728;2023-07-31T12:47:33;1.05;;;0.70;;
54743;SDS011;40639;53.170;6.728;2023-07-31T12:49:59;1.25;;;0.70;;
54743;SDS011;40639;53.170;6.728;2023-07-31T12:52:25;1.30;;;0.70;;
54743;SDS011;40639;53.170;6.728;2023-07-31T12:54:51;1.45;;;0.80;;
54743;SDS011;40639;53.170;6.728;2023-07-31T12:57:17;2.65;;;0.90;;
54743;SDS011;40639;53.170;6.728;2023-07-31T12:59:44;1.55;;;0.88;;
54743;SDS011;40639;53.170;6.728;2023-07-31T13:02:10;1.65;;;1.00;;
54743;SDS011;40639;53.170;6.728;2023-07-31T13:04:37;1.52;;;0.93;;
54743;SDS011;40639;53.170;6.728;2023-07-31T13:07:03;2.75;;;1.10;;
54743;SDS011;40639;53.170;6.728;2023-07-31T13:09:29;3.05;;;1.30;;
54743;SDS011;40639;53.170;6.728;2023-07-31T13:11:55;7.00;;;1.40;;
54743;SDS011;40639;53.170;6.728;2023-07-31T13:14:21;2.72;;;1.45;;
54743;SDS011;40639;53.170;6.728;2023-07-31T13:16:47;3.65;;;1.77;;
54743;SDS011;40639;53.170;6.728;2023-07-31T13:19:13;4.10;;;1.60;;
54743;SDS011;40639;53.170;6.728;2023-07-31T13:21:39;3.55;;;1.85;;
54743;SDS011;40639;53.170;6.728;2023-07-31T13:24:05;3.05;;;1.42;;
54743;SDS011;40639;53.170;6.728;2023-07-31T13:26:31;2.65;;;1.45;;
54743;SDS011;40639;53.170;6.728;2023-07-31T13:28:57;4.30;;;1.63;;
54743;SDS011;40639;53.170;6.728;2023-07-31T13:31:23;6.57;;;2.30;;
54743;SDS011;40639;53.170;6.728;2023-07-31T13:33:50;4.65;;;1.73;;
54743;SDS011;40639;53.170;6.728;2023-07-31T13:36:16;4.55;;;1.75;;
54743;SDS011;40639;53.170;6.728;2023-07-31T13:38:42;3.65;;;1.90;;
54743;SDS011;40639;53.170;6.728;2023-07-31T13:41:08;4.47;;;1.70;;
54743;SDS011;40639;53.170;6.728;2023-07-31T13:43:34;4.55;;;2.22;;
54743;SDS011;40639;53.170;6.728;2023-07-31T13:46:00;4.10;;;2.00;;
54743;SDS011;40639;53.170;6.728;2023-07-31T13:48:35;5.65;;;1.60;;
54743;SDS011;40639;53.170;6.728;2023-07-31T13:51:01;4.45;;;2.05;;
54743;SDS011;40639;53.170;6.728;2023-07-31T13:53:27;4.95;;;1.90;;
54743;SDS011;40639;53.170;6.728;2023-07-31T13:55:53;10.15;;;2.38;;
54743;SDS011;40639;53.170;6.728;2023-07-31T13:58:20;8.35;;;2.30;;
54743;SDS011;40639;53.170;6.728;2023-07-31T14:00:46;5.70;;;2.20;;
54743;SDS011;40639;53.170;6.728;2023-07-31T14:03:12;7.82;;;2.60;;
54743;SDS011;40639;53.170;6.728;2023-07-31T14:05:38;7.93;;;1.90;;
54743;SDS011;40639;53.170;6.728;2023-07-31T14:08:04;5.50;;;2.60;;
54743;SDS011;40639;53.170;6.728;2023-07-31T14:10:31;6.07;;;2.45;;
54743;SDS011;40639;53.170;6.728;2023-07-31T14:12:57;5.28;;;2.20;;
54743;SDS011;40639;53.170;6.728;2023-07-31T14:15:23;7.32;;;2.28;;
54743;SDS011;40639;53.170;6.728;2023-07-31T14:17:49;5.85;;;2.35;;
54743;SDS011;40639;53.170;6.728;2023-07-31T14:20:15;5.88;;;2.25;;
54743;SDS011;40639;53.170;6.728;2023-07-31T14:22:41;5.28;;;2.20;;
54743;SDS011;40639;53.170;6.728;2023-07-31T14:25:07;6.93;;;2.72;;
54743;SDS011;40639;53.170;6.728;2023-07-31T14:27:35;5.30;;;2.60;;
54743;SDS011;40639;53.170;6.728;2023-07-31T14:30:01;5.40;;;2.15;;
54743;SDS011;40639;53.170;6.728;2023-07-31T14:32:28;5.57;;;2.28;;
54743;SDS011;40639;53.170;6.728;2023-07-31T14:34:54;5.85;;;2.60;;
54743;SDS011;40639;53.170;6.728;2023-07-31T14:37:20;7.32;;;3.05;;
54743;SDS011;40639;53.170;6.728;2023-07-31T14:39:46;5.28;;;2.55;;
54743;SDS011;40639;53.170;6.728;2023-07-31T14:42:12;5.57;;;2.50;;
54743;SDS011;40639;53.170;6.728;2023-07-31T14:44:38;9.48;;;2.78;;
54743;SDS011;40639;53.170;6.728;2023-07-31T14:47:04;6.78;;;2.92;;
54743;SDS011;40639;53.170;6.728;2023-07-31T14:49:30;8.90;;;2.90;;
54743;SDS011;40639;53.170;6.728;2023-07-31T14:51:57;5.00;;;2.90;;
54743;SDS011;40639;53.170;6.728;2023-07-31T14:54:23;9.40;;;3.17;;
54743;SDS011;40639;53.170;6.728;2023-07-31T14:56:49;7.80;;;3.15;;